Slaughter, Louisiana
Current Conditions -  °F | °C
As of 9:36 PM on Saturday 22 Nov 2014 (Local Time) from KBTR Reporting Station
Overcast Overcast  
Wind Chill: 64°   Ceiling: 900
Heat Index: 64°   Visibility: 10mi
Dew Point: 61°   Wind: 14mph
Humidity: 90%   Direction: 110°ESE
Pressure: 29.93"   Gusts: NA
Location:  30.72°N, 91.14°W
Report Text: KBTR 230336Z 11012KT 10SM OVC009 18/16 A2993 RMK AO2 T01780161
Loading
Personal Weather Stations






























Interactive Weather Map New forecast layout! Learn more

10-Day Weather Forecast

Advertisements
Track Severe Weather on mobile